Time;durP1;ratioP1;P1;durP2;ratioP2;P2;SDS_P1;SDS_P2;PMS_P1;PMS_P2;Temp;Humidity;BMP_temperature;BMP_pressure;BME280_temperature;BME280_humidity;BME280_pressure;Samples;Min_cycle;Max_cycle;Signal;HPM_P1;HPM_P2
2022/07/22 00:00:19;;;;;;;4.8;10.3;;;;;;;18.2;100;98600;;;;
2022/07/22 00:11:19;;;;;;;4.2;8.2;;;;;;;18;100;98610;;;;
2022/07/22 00:21:19;;;;;;;4.2;8.2;;;;;;;17.9;100;98610;;;;
2022/07/22 00:32:19;;;;;;;4.2;8.2;;;;;;;17.7;100;98600;;;;
2022/07/22 00:42:19;;;;;;;5.4;8.2;;;;;;;17.7;100;98600;;;;
2022/07/22 00:53:19;;;;;;;5.4;8.2;;;;;;;17.5;100;98600;;;;
2022/07/22 01:03:19;;;;;;;5.4;8.2;;;;;;;17.4;100;98600;;;;
2022/07/22 01:13:19;;;;;;;5.1;8;;;;;;;17.2;100;98610;;;;
2022/07/22 01:23:19;;;;;;;5.1;8;;;;;;;17;100;98610;;;;
2022/07/22 01:34:19;;;;;;;5.1;8;;;;;;;16.9;100;98610;;;;
2022/07/22 01:45:19;;;;;;;6.3;10;;;;;;;16.9;100;98620;;;;
2022/07/22 01:55:19;;;;;;;6.3;10;;;;;;;16.7;100;98640;;;;
2022/07/22 02:06:19;;;;;;;6.3;10;;;;;;;16.6;100;98630;;;;
2022/07/22 02:16:19;;;;;;;6.8;12.5;;;;;;;16.7;100;98620;;;;
2022/07/22 02:27:19;;;;;;;6.8;12.5;;;;;;;16.6;100;98640;;;;
2022/07/22 02:37:19;;;;;;;6.8;12.5;;;;;;;16.7;100;98640;;;;
2022/07/22 02:47:19;;;;;;;6.2;11.2;;;;;;;16.7;100;98650;;;;
2022/07/22 02:58:19;;;;;;;6.2;11.2;;;;;;;16.7;100;98660;;;;
2022/07/22 03:08:19;;;;;;;6.2;11.2;;;;;;;16.7;100;98680;;;;
2022/07/22 03:18:19;;;;;;;6.7;11.8;;;;;;;17.1;100;98700;;;;
2022/07/22 03:29:19;;;;;;;6.7;11.8;;;;;;;17.6;100;98710;;;;
2022/07/22 03:39:20;;;;;;;6.7;11.8;;;;;;;17.9;100;98700;;;;
2022/07/22 03:50:19;;;;;;;7.6;13.8;;;;;;;18.3;100;98710;;;;
2022/07/22 04:01:19;;;;;;;7.6;13.8;;;;;;;18.8;100;98720;;;;
2022/07/22 04:11:19;;;;;;;7.9;14.2;;;;;;;19.4;100;98720;;;;
2022/07/22 04:21:19;;;;;;;7.9;14.2;;;;;;;20.1;100;98720;;;;
2022/07/22 04:32:19;;;;;;;7.9;14.2;;;;;;;20.6;100;98730;;;;
2022/07/22 04:43:19;;;;;;;7.1;12.7;;;;;;;21.2;100;98740;;;;
2022/07/22 04:53:19;;;;;;;7.1;12.7;;;;;;;21.8;100;98740;;;;
2022/07/22 05:04:19;;;;;;;7.1;12.7;;;;;;;22.4;100;98750;;;;
2022/07/22 05:15:19;;;;;;;6.4;12.9;;;;;;;23.1;100;98750;;;;
2022/07/22 05:26:19;;;;;;;6.4;12.9;;;;;;;23.7;100;98750;;;;
2022/07/22 05:37:19;;;;;;;6.4;12.9;;;;;;;23.9;100;98750;;;;
2022/07/22 05:47:19;;;;;;;5.8;10.1;;;;;;;23.7;100;98760;;;;
2022/07/22 05:58:19;;;;;;;5.8;10.1;;;;;;;23.7;100;98760;;;;
2022/07/22 06:09:19;;;;;;;5.8;10.1;;;;;;;23.5;100;98750;;;;
2022/07/22 06:19:19;;;;;;;7.1;14.7;;;;;;;23.6;100;98760;;;;
2022/07/22 06:30:20;;;;;;;7.1;14.7;;;;;;;23.6;100;98760;;;;
2022/07/22 06:40:19;;;;;;;7.7;16.2;;;;;;;24.2;100;98750;;;;
2022/07/22 06:50:19;;;;;;;7.7;16.2;;;;;;;24.8;100;98740;;;;
2022/07/22 07:01:19;;;;;;;7.7;16.2;;;;;;;25.3;100;98740;;;;
2022/07/22 07:11:19;;;;;;;6.8;10.5;;;;;;;25.5;100;98740;;;;
2022/07/22 07:22:20;;;;;;;6.8;10.5;;;;;;;25.6;100;98740;;;;
2022/07/22 07:33:19;;;;;;;6.8;10.5;;;;;;;26.2;100;98740;;;;
2022/07/22 07:44:19;;;;;;;7.7;12.9;;;;;;;26.9;100;98750;;;;
2022/07/22 07:54:19;;;;;;;7.7;12.9;;;;;;;27.3;100;98750;;;;
2022/07/22 08:05:21;;;;;;;7.7;12.9;;;;;;;27.9;100;98760;;;;
2022/07/22 08:15:19;;;;;;;6.8;11.2;;;;;;;27.6;100;98770;;;;
2022/07/22 08:25:20;;;;;;;6.8;11.2;;;;;;;27.2;100;98780;;;;
2022/07/22 08:36:19;;;;;;;6.8;11.2;;;;;;;26.8;100;98780;;;;
2022/07/22 08:46:19;;;;;;;6.9;10.1;;;;;;;26.5;100;98780;;;;
2022/07/22 08:56:19;;;;;;;6.9;10.1;;;;;;;26.8;100;98800;;;;
2022/07/22 09:06:20;;;;;;;6.9;10.1;;;;;;;27.3;100;98780;;;;
2022/07/22 09:16:21;;;;;;;7.2;13.9;;;;;;;27.4;100;98790;;;;
2022/07/22 09:27:20;;;;;;;7.2;13.9;;;;;;;27.6;100;98790;;;;
2022/07/22 09:38:21;;;;;;;7.2;13.9;;;;;;;27.9;100;98790;;;;
2022/07/22 09:49:21;;;;;;;9;14.3;;;;;;;28.2;100;98800;;;;
2022/07/22 10:00:20;;;;;;;9;14.3;;;;;;;29;99.2;98790;;;;
2022/07/22 10:10:19;;;;;;;8.7;12.6;;;;;;;28.4;100;98800;;;;
2022/07/22 10:20:20;;;;;;;8.7;12.6;;;;;;;28.6;98.4;98790;;;;
2022/07/22 10:30:19;;;;;;;8.7;12.6;;;;;;;28.8;100;98790;;;;
2022/07/22 10:41:20;;;;;;;8.2;11.4;;;;;;;28.9;100;98790;;;;
2022/07/22 10:51:20;;;;;;;8.2;11.4;;;;;;;29.8;96.2;98780;;;;
2022/07/22 11:02:19;;;;;;;8.2;11.4;;;;;;;30;96.5;98770;;;;
2022/07/22 11:12:20;;;;;;;7.6;11.7;;;;;;;30.6;91;98770;;;;
2022/07/22 11:22:20;;;;;;;7.6;11.7;;;;;;;30.5;88.8;98760;;;;
2022/07/22 11:33:19;;;;;;;;;;;;;;;;;;;;;
2022/07/22 11:43:20;;;;;;;7.8;10.3;;;;;;;30.5;90.7;98760;;;;
2022/07/22 11:53:19;;;;;;;7.8;10.3;;;;;;;30.7;89.5;98740;;;;
2022/07/22 12:03:20;;;;;;;7.8;10.3;;;;;;;31.8;89.3;98720;;;;
2022/07/22 12:13:20;;;;;;;9.1;13.2;;;;;;;31.7;90.5;98720;;;;
2022/07/22 12:24:21;;;;;;;9.1;13.2;;;;;;;31.2;89.6;98710;;;;
2022/07/22 12:35:20;;;;;;;9.1;13.2;;;;;;;31.5;89.5;98690;;;;
2022/07/22 12:46:20;;;;;;;9;13.2;;;;;;;32;88.2;98680;;;;
2022/07/22 12:56:20;;;;;;;9;13.2;;;;;;;32.3;87.9;98670;;;;
2022/07/22 13:07:20;;;;;;;9;13.2;;;;;;;32.3;79.6;98660;;;;
2022/07/22 13:18:20;;;;;;;6.8;12.9;;;;;;;32.3;79;98660;;;;
2022/07/22 13:29:20;;;;;;;6.8;12.9;;;;;;;32.4;81.6;98630;;;;
2022/07/22 13:39:20;;;;;;;6.8;12.9;;;;;;;32.4;78.7;98630;;;;
2022/07/22 13:50:20;;;;;;;7.5;10.8;;;;;;;32.9;75.1;98620;;;;
2022/07/22 14:00:20;;;;;;;7.5;10.8;;;;;;;33.1;73.6;98610;;;;
2022/07/22 14:10:20;;;;;;;7.5;10.8;;;;;;;33.3;76;98610;;;;
2022/07/22 14:21:20;;;;;;;7.2;10.3;;;;;;;33.4;73.9;98600;;;;
2022/07/22 14:31:20;;;;;;;7.2;10.3;;;;;;;33.8;78.4;98600;;;;
2022/07/22 14:41:20;;;;;;;8.1;13.3;;;;;;;33.7;66.9;98600;;;;
2022/07/22 14:52:20;;;;;;;8.1;13.3;;;;;;;34;65.9;98610;;;;
2022/07/22 15:02:20;;;;;;;8.1;13.3;;;;;;;33.8;65.3;98610;;;;
2022/07/22 15:13:20;;;;;;;6.9;10.5;;;;;;;35.9;62.7;98610;;;;
2022/07/22 15:24:20;;;;;;;6.9;10.5;;;;;;;38.5;55.2;98610;;;;
2022/07/22 15:35:20;;;;;;;6.9;10.5;;;;;;;40.5;50.5;98600;;;;
2022/07/22 15:46:20;;;;;;;6.4;12.6;;;;;;;40.5;49.1;98600;;;;
2022/07/22 16:07:20;;;;;;;6.4;12.6;;;;;;;41.7;45.4;98590;;;;
2022/07/22 16:18:20;;;;;;;5.1;7.7;;;;;;;40.5;48.1;98580;;;;
2022/07/22 16:28:20;;;;;;;5.1;7.7;;;;;;;38.9;50.8;98590;;;;
2022/07/22 16:38:20;;;;;;;5.1;7.7;;;;;;;39.1;52.5;98590;;;;
2022/07/22 16:48:20;;;;;;;5;9.4;;;;;;;38.7;50.4;98590;;;;
2022/07/22 16:58:20;;;;;;;5;9.4;;;;;;;38;53.2;98580;;;;
2022/07/22 17:09:20;;;;;;;5;9.4;;;;;;;35.7;56.7;98570;;;;
2022/07/22 17:20:20;;;;;;;5.8;9.7;;;;;;;34;63.3;98570;;;;
2022/07/22 17:30:20;;;;;;;5.8;9.7;;;;;;;33;70.1;98550;;;;
2022/07/22 17:41:20;;;;;;;5.8;9.7;;;;;;;31.8;77.6;98540;;;;
2022/07/22 17:51:20;;;;;;;6.3;9.1;;;;;;;31.9;79.8;98540;;;;
2022/07/22 18:02:20;;;;;;;6.3;9.1;;;;;;;31.8;76.7;98540;;;;
2022/07/22 18:13:20;;;;;;;6.4;8.7;;;;;;;30.9;77.3;98520;;;;
2022/07/22 18:23:20;;;;;;;6.4;8.7;;;;;;;30;81.4;98520;;;;
2022/07/22 18:34:20;;;;;;;6.4;8.7;;;;;;;29;82.9;98520;;;;
2022/07/22 18:45:20;;;;;;;6;11.6;;;;;;;28;82.3;98520;;;;
2022/07/22 18:56:20;;;;;;;6;11.6;;;;;;;27.5;80.8;98530;;;;
2022/07/22 19:06:20;;;;;;;6;11.6;;;;;;;27;83.4;98540;;;;
2022/07/22 19:16:20;;;;;;;6.2;12.6;;;;;;;26.6;84.7;98540;;;;
2022/07/22 19:27:20;;;;;;;6.2;12.6;;;;;;;26;88.6;98540;;;;
2022/07/22 19:38:20;;;;;;;6.2;12.6;;;;;;;25.6;98.2;98550;;;;
2022/07/22 19:48:20;;;;;;;7;11.2;;;;;;;24.9;100;98560;;;;
2022/07/22 19:58:20;;;;;;;7;11.2;;;;;;;24.6;100;98560;;;;
2022/07/22 20:09:20;;;;;;;7;11.2;;;;;;;24.3;100;98560;;;;
2022/07/22 20:19:20;;;;;;;7.9;12.8;;;;;;;23.9;100;98560;;;;
2022/07/22 20:29:20;;;;;;;7.9;12.8;;;;;;;23.7;100;98560;;;;
2022/07/22 20:40:20;;;;;;;7.9;12.8;;;;;;;23.9;100;98550;;;;
2022/07/22 20:50:20;;;;;;;6.9;10.9;;;;;;;23.8;100;98560;;;;
2022/07/22 21:00:20;;;;;;;6.9;10.9;;;;;;;23.7;100;98560;;;;
2022/07/22 21:11:20;;;;;;;6.9;10.9;;;;;;;23.5;100;98560;;;;
2022/07/22 21:22:20;;;;;;;7;10.9;;;;;;;23.2;100;98560;;;;
2022/07/22 21:32:20;;;;;;;7;10.9;;;;;;;23;100;98560;;;;
2022/07/22 21:43:21;;;;;;;6.2;10.5;;;;;;;22.7;100;98550;;;;
2022/07/22 21:53:20;;;;;;;6.2;10.5;;;;;;;22.5;100;98560;;;;
2022/07/22 22:03:20;;;;;;;6.2;10.5;;;;;;;22.3;100;98560;;;;
2022/07/22 22:13:20;;;;;;;6.5;10.4;;;;;;;22;100;98560;;;;
2022/07/22 22:24:20;;;;;;;6.5;10.4;;;;;;;21.7;100;98560;;;;
2022/07/22 22:35:20;;;;;;;6.5;10.4;;;;;;;21.5;100;98560;;;;
2022/07/22 22:46:20;;;;;;;6.8;10.2;;;;;;;21.3;100;98570;;;;
2022/07/22 22:56:20;;;;;;;6.8;10.2;;;;;;;21.2;100;98580;;;;
2022/07/22 23:06:20;;;;;;;6.8;10.2;;;;;;;20.9;100;98580;;;;
2022/07/22 23:17:20;;;;;;;6.8;9.7;;;;;;;20.7;100;98590;;;;
2022/07/22 23:27:20;;;;;;;6.8;9.7;;;;;;;20.5;100;98580;;;;
2022/07/22 23:38:20;;;;;;;6.8;9.7;;;;;;;20.3;100;98590;;;;
2022/07/22 23:49:20;;;;;;;8.1;12.6;;;;;;;20.1;100;98590;;;;
